Time;durP1;ratioP1;P1;durP2;ratioP2;P2;SDS_P1;SDS_P2;PMS_P1;PMS_P2;Temp;Humidity;BMP_temperature;BMP_pressure;BME280_temperature;BME280_humidity;BME280_pressure;Samples;Min_cycle;Max_cycle;Signal;HPM_P1;HPM_P2
2023/09/27 00:00:21;;;;;;;25.88;17.67;;;13.20;99.90;;;;;;5049438;28;20045;-66
2023/09/27 00:02:47;;;;;;;28.52;17.25;;;13.30;99.90;;;;;;5037203;28;20077;-66
2023/09/27 00:05:13;;;;;;;28.17;19.35;;;13.30;99.90;;;;;;5027402;28;20080;-66
2023/09/27 00:07:40;;;;;;;27.35;19.98;;;13.30;99.90;;;;;;5042400;28;20449;-65
2023/09/27 00:10:09;;;;;;;29.25;20.92;;;13.30;99.90;;;;;;5041946;28;20033;-66
2023/09/27 00:12:35;;;;;;;30.02;20.38;;;13.40;99.90;;;;;;5032320;28;20067;-66
2023/09/27 00:15:04;;;;;;;28.05;20.88;;;13.40;99.90;;;;;;5042751;28;20056;-66
2023/09/27 00:17:30;;;;;;;30.88;19.52;;;13.40;99.90;;;;;;5035766;28;20075;-66
2023/09/27 00:19:56;;;;;;;29.38;19.38;;;13.40;99.90;;;;;;5040059;28;20556;-66
2023/09/27 00:22:21;;;;;;;29.85;20.55;;;13.50;99.90;;;;;;5037736;28;20132;-66
2023/09/27 00:24:48;;;;;;;30.05;19.73;;;13.50;99.90;;;;;;5042878;28;20044;-66
2023/09/27 00:27:15;;;;;;;30.20;20.33;;;13.50;99.90;;;;;;5047374;28;20044;-66
2023/09/27 00:29:41;;;;;;;33.80;20.95;;;13.40;99.90;;;;;;5048062;28;20131;-66
2023/09/27 00:32:06;;;;;;;28.70;19.13;;;13.40;99.90;;;;;;5050602;28;20148;-66
2023/09/27 00:34:32;;;;;;;33.83;20.58;;;13.40;99.90;;;;;;5043654;28;20045;-66
2023/09/27 00:36:57;;;;;;;30.40;19.88;;;13.40;99.90;;;;;;5042826;28;20097;-66
2023/09/27 00:39:24;;;;;;;37.13;23.73;;;13.50;99.90;;;;;;5022849;28;20071;-66
2023/09/27 00:41:49;;;;;;;33.63;21.25;;;13.50;99.90;;;;;;5042811;28;20060;-65
2023/09/27 00:44:15;;;;;;;32.63;21.48;;;13.50;99.90;;;;;;5043386;28;20125;-66
2023/09/27 00:46:41;;;;;;;32.90;21.40;;;13.50;99.90;;;;;;5035677;28;20134;-66
2023/09/27 00:49:08;;;;;;;39.08;23.63;;;13.50;99.90;;;;;;5030296;28;20048;-66
2023/09/27 00:51:35;;;;;;;32.90;23.42;;;13.60;99.90;;;;;;5044697;28;20509;-65
2023/09/27 00:54:01;;;;;;;34.55;22.40;;;13.70;99.90;;;;;;5046256;28;20048;-66
2023/09/27 00:56:28;;;;;;;33.95;21.70;;;13.70;99.90;;;;;;5045344;28;20456;-67
2023/09/27 00:58:54;;;;;;;36.30;21.42;;;13.80;99.90;;;;;;5038495;28;20119;-66
2023/09/27 01:01:20;;;;;;;34.00;21.02;;;13.80;99.90;;;;;;5028051;28;20124;-66
2023/09/27 01:03:47;;;;;;;32.97;21.35;;;13.80;99.90;;;;;;5041469;28;20053;-65
2023/09/27 01:06:13;;;;;;;33.33;22.35;;;13.80;99.90;;;;;;5023763;28;20051;-66
2023/09/27 01:08:38;;;;;;;33.28;20.67;;;13.80;99.90;;;;;;5039575;28;20106;-66
2023/09/27 01:11:05;;;;;;;32.97;21.23;;;13.80;99.90;;;;;;5038887;28;20829;-66
2023/09/27 01:13:31;;;;;;;29.98;20.95;;;13.80;99.90;;;;;;5035183;28;20052;-66
2023/09/27 01:15:57;;;;;;;29.55;19.80;;;13.70;99.90;;;;;;5038938;28;20044;-66
2023/09/27 01:18:25;;;;;;;30.13;19.77;;;13.70;99.90;;;;;;5039073;28;20623;-66
2023/09/27 01:20:50;;;;;;;33.50;21.17;;;13.70;99.90;;;;;;5032358;28;20512;-65
2023/09/27 01:23:16;;;;;;;34.25;21.08;;;13.70;99.90;;;;;;5036484;28;20041;-66
2023/09/27 01:25:41;;;;;;;32.67;21.10;;;13.70;99.90;;;;;;5041766;28;20052;-67
2023/09/27 01:28:10;;;;;;;30.27;19.95;;;13.60;99.90;;;;;;5029883;28;20127;-67
2023/09/27 01:30:37;;;;;;;36.17;22.05;;;13.60;99.90;;;;;;5030787;28;20040;-66
2023/09/27 01:33:07;;;;;;;32.70;21.45;;;13.60;99.90;;;;;;5028623;28;20172;-68
2023/09/27 01:35:37;;;;;;;33.90;23.33;;;13.50;99.90;;;;;;5029669;28;20326;-66
2023/09/27 01:38:03;;;;;;;31.98;22.55;;;13.50;99.90;;;;;;5031721;28;20060;-66
2023/09/27 01:40:32;;;;;;;34.60;23.17;;;13.50;99.90;;;;;;5039981;28;20099;-67
2023/09/27 01:43:02;;;;;;;35.05;22.58;;;13.50;99.90;;;;;;5024095;28;20068;-66
2023/09/27 01:45:29;;;;;;;35.67;22.23;;;13.60;99.90;;;;;;5033321;28;20077;-66
2023/09/27 01:47:55;;;;;;;34.30;23.67;;;13.50;99.90;;;;;;5024666;28;20151;-66
2023/09/27 01:50:24;;;;;;;36.15;22.42;;;13.50;99.90;;;;;;5023806;28;20025;-66
2023/09/27 01:52:54;;;;;;;31.45;22.65;;;13.50;99.90;;;;;;5032513;28;20055;-66
2023/09/27 01:55:20;;;;;;;33.30;22.13;;;13.50;99.90;;;;;;5027524;28;20063;-66
2023/09/27 01:57:45;;;;;;;33.97;22.05;;;13.50;99.90;;;;;;5023969;28;20049;-66
2023/09/27 02:00:15;;;;;;;33.45;22.90;;;13.50;99.90;;;;;;5030575;28;20051;-66
2023/09/27 02:02:49;;;;;;;31.20;21.90;;;13.50;99.90;;;;;;5028901;28;20073;-67
2023/09/27 02:05:14;;;;;;;34.10;22.65;;;13.40;99.90;;;;;;5039617;28;20044;-67
2023/09/27 02:07:40;;;;;;;30.10;20.35;;;13.40;99.90;;;;;;5034220;28;20034;-66
2023/09/27 02:10:07;;;;;;;33.35;21.35;;;13.30;99.90;;;;;;5023945;28;20048;-66
2023/09/27 02:12:33;;;;;;;33.80;21.60;;;13.30;99.90;;;;;;5038296;28;20487;-66
2023/09/27 02:14:59;;;;;;;29.25;20.70;;;13.30;99.90;;;;;;5028809;28;20172;-66
2023/09/27 02:17:25;;;;;;;32.03;21.50;;;13.20;99.90;;;;;;5011301;28;20044;-66
2023/09/27 02:19:51;;;;;;;33.50;22.27;;;13.20;99.90;;;;;;5028791;28;20044;-66
2023/09/27 02:22:18;;;;;;;33.70;22.23;;;13.10;99.90;;;;;;5038381;28;20105;-66
2023/09/27 02:24:44;;;;;;;32.72;21.85;;;13.10;99.90;;;;;;5034020;28;20041;-66
2023/09/27 02:27:10;;;;;;;37.80;23.55;;;13.10;99.90;;;;;;5038608;28;20251;-66
2023/09/27 02:29:37;;;;;;;31.52;21.00;;;13.10;99.90;;;;;;5035771;28;20483;-66
2023/09/27 02:32:04;;;;;;;30.25;20.77;;;13.00;99.90;;;;;;5039140;28;20496;-65
2023/09/27 02:34:29;;;;;;;32.85;20.95;;;12.90;99.90;;;;;;5042873;28;20041;-66
2023/09/27 02:36:55;;;;;;;32.90;20.42;;;12.90;99.90;;;;;;5038017;28;20105;-65
2023/09/27 02:39:21;;;;;;;28.83;20.27;;;12.80;99.90;;;;;;5042958;28;20514;-66
2023/09/27 02:41:46;;;;;;;29.10;18.65;;;12.70;99.90;;;;;;5046299;28;20044;-66
2023/09/27 02:44:12;;;;;;;28.65;19.88;;;12.60;99.90;;;;;;5028570;28;20470;-65
2023/09/27 02:46:40;;;;;;;27.92;18.95;;;12.50;99.90;;;;;;5030308;28;20469;-66
2023/09/27 02:49:05;;;;;;;24.92;19.08;;;12.40;99.90;;;;;;5046683;28;20073;-66
2023/09/27 02:51:32;;;;;;;29.90;19.88;;;12.40;99.90;;;;;;5042233;28;20468;-66
2023/09/27 02:53:57;;;;;;;29.05;19.35;;;12.30;99.90;;;;;;5041754;28;20138;-65
2023/09/27 02:56:23;;;;;;;31.02;19.15;;;12.30;99.90;;;;;;5031755;28;20088;-66
2023/09/27 02:58:49;;;;;;;28.83;19.02;;;12.30;99.90;;;;;;5032342;28;20045;-66
2023/09/27 03:01:14;;;;;;;29.83;19.30;;;12.20;99.90;;;;;;5037057;28;20079;-65
2023/09/27 03:03:40;;;;;;;27.80;18.95;;;12.20;99.90;;;;;;5043528;28;20068;-66
2023/09/27 03:06:15;;;;;;;32.20;21.00;;;12.20;99.90;;;;;;5046398;28;20037;-66
2023/09/27 03:08:43;;;;;;;29.58;18.63;;;12.20;99.90;;;;;;5035244;28;20820;-65
2023/09/27 03:11:12;;;;;;;30.80;19.75;;;12.20;99.90;;;;;;5032687;28;20053;-66
2023/09/27 03:13:38;;;;;;;32.33;21.33;;;12.10;99.90;;;;;;5040377;28;20059;-65
2023/09/27 03:16:04;;;;;;;29.98;20.63;;;12.10;99.90;;;;;;5029452;28;20055;-65
2023/09/27 03:18:31;;;;;;;34.17;22.00;;;12.00;99.90;;;;;;5033191;28;20041;-65
2023/09/27 03:20:58;;;;;;;33.15;20.67;;;12.00;99.90;;;;;;5041224;28;20041;-66
2023/09/27 03:23:25;;;;;;;32.95;21.73;;;12.00;99.90;;;;;;5036567;28;20037;-66
2023/09/27 03:25:50;;;;;;;35.67;21.90;;;12.00;99.90;;;;;;5033639;28;20067;-66
2023/09/27 03:28:16;;;;;;;31.42;20.30;;;12.00;99.90;;;;;;5035516;28;20041;-66
2023/09/27 03:30:41;;;;;;;32.80;21.88;;;11.90;99.90;;;;;;5041688;28;20810;-65
2023/09/27 03:33:07;;;;;;;39.00;24.55;;;11.90;99.90;;;;;;5041080;28;20381;-66
2023/09/27 03:35:33;;;;;;;32.88;22.38;;;11.90;99.90;;;;;;5038188;28;20037;-66
2023/09/27 03:37:59;;;;;;;36.67;24.13;;;11.90;99.90;;;;;;5040696;28;20055;-66
2023/09/27 03:40:25;;;;;;;37.65;22.85;;;11.90;99.90;;;;;;5039357;28;20413;-65
2023/09/27 03:42:50;;;;;;;38.40;23.67;;;11.90;99.90;;;;;;5046246;28;20341;-65
2023/09/27 03:45:16;;;;;;;38.30;24.85;;;11.80;99.90;;;;;;5038346;28;20037;-65
2023/09/27 03:47:45;;;;;;;37.45;25.48;;;11.80;99.90;;;;;;5035515;28;20044;-66
2023/09/27 03:50:12;;;;;;;39.03;25.40;;;11.80;99.90;;;;;;5031805;28;20153;-66
2023/09/27 03:52:40;;;;;;;37.80;23.50;;;11.80;99.90;;;;;;5028317;28;20144;-66
2023/09/27 03:55:10;;;;;;;35.50;22.58;;;11.80;99.90;;;;;;5029804;28;20037;-66
2023/09/27 03:57:36;;;;;;;32.42;21.35;;;11.80;99.90;;;;;;5043481;28;20044;-65
2023/09/27 04:00:06;;;;;;;35.15;21.83;;;11.70;99.90;;;;;;5024491;28;20041;-65
2023/09/27 04:02:32;;;;;;;37.50;21.83;;;11.70;99.90;;;;;;5040188;28;20267;-66
2023/09/27 04:04:58;;;;;;;40.67;21.88;;;11.70;99.90;;;;;;5025181;28;20890;-65
2023/09/27 04:07:24;;;;;;;36.55;21.77;;;11.60;99.90;;;;;;5040384;28;20037;-66
2023/09/27 04:09:50;;;;;;;36.53;24.65;;;11.60;99.90;;;;;;5035093;28;20120;-66
2023/09/27 04:12:15;;;;;;;37.03;24.02;;;11.60;99.90;;;;;;5040060;28;20144;-65
2023/09/27 04:14:41;;;;;;;36.38;24.10;;;11.60;99.90;;;;;;5050074;28;20045;-65
2023/09/27 04:17:06;;;;;;;35.85;22.88;;;11.60;99.90;;;;;;5033673;28;20082;-65
2023/09/27 04:19:33;;;;;;;38.60;25.02;;;11.60;99.90;;;;;;5043195;28;20044;-66
2023/09/27 04:21:58;;;;;;;42.60;25.15;;;11.60;99.90;;;;;;5045351;28;20044;-65
2023/09/27 04:24:25;;;;;;;38.97;24.95;;;11.60;99.90;;;;;;5046772;28;20546;-66
2023/09/27 04:26:51;;;;;;;37.55;23.23;;;11.60;99.90;;;;;;5023462;28;20049;-66
2023/09/27 04:29:16;;;;;;;38.22;24.02;;;11.60;99.90;;;;;;5021200;28;20501;-65
2023/09/27 04:31:42;;;;;;;36.85;23.60;;;11.60;99.90;;;;;;5037381;28;20515;-65
2023/09/27 04:34:07;;;;;;;41.70;25.13;;;11.60;99.90;;;;;;5040314;28;20147;-65
2023/09/27 04:36:33;;;;;;;37.67;24.17;;;11.60;99.90;;;;;;5030860;28;21083;-66
2023/09/27 04:38:59;;;;;;;35.53;23.48;;;11.60;99.90;;;;;;5041513;28;20504;-65
2023/09/27 04:41:25;;;;;;;37.95;25.48;;;11.50;99.90;;;;;;5038724;28;20044;-66
2023/09/27 04:43:50;;;;;;;40.95;26.63;;;11.60;99.90;;;;;;5040185;28;20059;-66
2023/09/27 04:46:18;;;;;;;40.78;25.25;;;11.60;99.90;;;;;;5044857;28;20063;-65
2023/09/27 04:48:45;;;;;;;39.25;24.20;;;11.60;99.90;;;;;;5041631;28;20151;-66
2023/09/27 04:51:10;;;;;;;40.70;22.95;;;11.70;99.90;;;;;;5034352;28;20976;-66
2023/09/27 04:53:37;;;;;;;40.53;26.70;;;11.70;99.90;;;;;;5043842;28;20060;-66
2023/09/27 04:56:12;;;;;;;43.35;25.55;;;11.70;99.90;;;;;;5037488;28;20423;-65
2023/09/27 04:58:43;;;;;;;42.67;27.25;;;11.70;99.90;;;;;;5043083;28;20060;-66
2023/09/27 05:01:09;;;;;;;47.33;28.42;;;11.70;99.90;;;;;;5032481;28;20052;-66
2023/09/27 05:03:35;;;;;;;50.95;29.98;;;11.70;99.90;;;;;;5033939;28;20139;-66
2023/09/27 05:06:01;;;;;;;46.33;29.75;;;11.80;99.90;;;;;;5033559;28;20492;-66
2023/09/27 05:08:26;;;;;;;49.20;29.48;;;11.80;99.90;;;;;;5041591;28;20307;-66
2023/09/27 05:10:52;;;;;;;53.28;31.38;;;11.90;99.90;;;;;;5034964;28;20061;-66
2023/09/27 05:13:21;;;;;;;55.50;33.03;;;11.90;99.90;;;;;;5037117;28;20479;-66
2023/09/27 05:15:48;;;;;;;49.13;31.58;;;11.90;99.90;;;;;;5036601;28;20047;-66
2023/09/27 05:18:13;;;;;;;54.40;31.73;;;12.00;99.90;;;;;;5025128;28;20102;-66
2023/09/27 05:20:39;;;;;;;54.92;33.83;;;12.00;99.90;;;;;;5031015;28;20041;-66
2023/09/27 05:23:05;;;;;;;52.85;32.85;;;12.00;99.90;;;;;;5035602;28;20489;-66
2023/09/27 05:25:30;;;;;;;52.83;32.17;;;12.00;99.90;;;;;;5038786;28;20081;-66
2023/09/27 05:27:57;;;;;;;56.50;33.00;;;12.10;99.90;;;;;;5020691;28;20037;-66
2023/09/27 05:30:22;;;;;;;52.38;31.17;;;12.10;99.90;;;;;;5044679;28;20045;-66
2023/09/27 05:32:48;;;;;;;53.15;31.55;;;12.20;99.90;;;;;;5037928;28;20095;-66
2023/09/27 05:35:13;;;;;;;52.20;32.08;;;12.20;99.90;;;;;;5032811;28;20568;-66
2023/09/27 05:37:41;;;;;;;50.30;31.90;;;12.30;99.90;;;;;;5039283;28;20384;-66
2023/09/27 05:40:09;;;;;;;54.83;33.35;;;12.40;99.90;;;;;;5032383;28;20049;-67
2023/09/27 05:42:35;;;;;;;56.78;34.20;;;12.50;99.90;;;;;;5034629;28;20040;-65
2023/09/27 05:45:01;;;;;;;57.08;33.38;;;12.50;99.90;;;;;;5039514;28;20056;-66
2023/09/27 05:47:26;;;;;;;54.47;32.22;;;12.70;99.90;;;;;;5039167;28;20045;-66
2023/09/27 05:49:53;;;;;;;52.97;32.33;;;12.80;99.90;;;;;;5046031;28;20211;-66
2023/09/27 05:52:19;;;;;;;55.22;33.05;;;12.90;99.90;;;;;;5025231;28;20045;-66
2023/09/27 05:54:46;;;;;;;57.10;33.38;;;13.00;99.90;;;;;;5045304;28;20160;-66
2023/09/27 05:57:11;;;;;;;52.45;32.58;;;13.10;99.90;;;;;;5043760;28;20051;-66
2023/09/27 05:59:40;;;;;;;55.80;32.22;;;13.10;99.90;;;;;;5044818;28;20045;-67
2023/09/27 06:02:09;;;;;;;49.65;31.60;;;13.20;99.90;;;;;;5039848;28;20048;-66
2023/09/27 06:04:35;;;;;;;52.08;31.45;;;13.30;99.90;;;;;;5033392;28;20133;-66
2023/09/27 06:07:00;;;;;;;46.92;29.45;;;13.30;99.90;;;;;;5044259;28;20094;-66
2023/09/27 06:09:26;;;;;;;48.67;30.80;;;13.30;99.90;;;;;;5042342;28;20144;-66
2023/09/27 06:11:52;;;;;;;44.42;27.90;;;13.30;99.90;;;;;;5026413;28;20425;-66
2023/09/27 06:14:17;;;;;;;47.92;29.52;;;13.30;99.90;;;;;;5041550;28;20048;-66
2023/09/27 06:16:45;;;;;;;42.67;27.88;;;13.30;99.90;;;;;;5033177;28;20103;-66
2023/09/27 06:19:11;;;;;;;46.80;28.38;;;13.40;99.90;;;;;;5022535;28;20102;-66
2023/09/27 06:21:37;;;;;;;43.05;28.13;;;13.40;99.90;;;;;;5039664;28;20397;-66
2023/09/27 06:24:04;;;;;;;44.35;27.25;;;13.40;99.90;;;;;;5043312;28;20037;-66
2023/09/27 06:26:30;;;;;;;42.22;26.20;;;13.40;99.90;;;;;;5037192;28;20033;-66
2023/09/27 06:28:56;;;;;;;40.00;26.02;;;13.40;99.90;;;;;;5037806;28;20159;-66
2023/09/27 06:31:21;;;;;;;41.35;26.58;;;13.40;99.90;;;;;;5026748;28;20060;-66
2023/09/27 06:33:47;;;;;;;42.78;27.25;;;13.50;99.90;;;;;;5047441;28;20049;-66
2023/09/27 06:36:16;;;;;;;42.40;27.35;;;13.50;99.90;;;;;;5040767;28;20484;-67
2023/09/27 06:38:41;;;;;;;47.33;29.77;;;13.50;99.90;;;;;;5040893;28;20044;-66
2023/09/27 06:41:08;;;;;;;49.78;30.95;;;13.50;99.90;;;;;;5046566;28;20338;-66
2023/09/27 06:43:34;;;;;;;45.85;30.98;;;13.60;99.90;;;;;;5037764;28;20124;-66
2023/09/27 06:46:07;;;;;;;46.08;30.23;;;13.60;99.90;;;;;;5047792;28;20425;-66
2023/09/27 06:48:33;;;;;;;47.85;31.35;;;13.70;99.90;;;;;;5049353;28;20095;-66
2023/09/27 06:50:58;;;;;;;46.80;29.25;;;13.70;99.90;;;;;;5031401;28;20037;-66
2023/09/27 06:53:24;;;;;;;49.22;30.25;;;13.70;99.90;;;;;;5048454;28;20044;-67
2023/09/27 06:55:53;;;;;;;46.40;29.30;;;13.70;99.90;;;;;;5044302;28;20135;-66
2023/09/27 06:58:23;;;;;;;44.80;29.27;;;13.70;99.90;;;;;;5042146;28;20053;-67
2023/09/27 07:00:50;;;;;;;47.97;30.83;;;13.80;99.90;;;;;;5043761;28;20041;-67
2023/09/27 07:03:15;;;;;;;43.15;28.00;;;13.90;99.90;;;;;;5032256;28;20057;-66
2023/09/27 07:05:41;;;;;;;48.00;28.63;;;14.10;99.90;;;;;;5047968;28;20195;-67
2023/09/27 07:08:06;;;;;;;43.97;28.45;;;14.20;99.90;;;;;;5044561;28;20052;-67
2023/09/27 07:10:32;;;;;;;43.63;29.38;;;14.40;99.90;;;;;;5046392;28;20032;-67
2023/09/27 07:12:58;;;;;;;40.45;29.08;;;14.60;99.90;;;;;;5052081;28;20115;-66
2023/09/27 07:15:23;;;;;;;42.00;27.20;;;14.80;99.90;;;;;;5029024;28;20037;-67
2023/09/27 07:17:49;;;;;;;39.35;27.48;;;14.90;99.90;;;;;;5048692;28;20159;-67
2023/09/27 07:20:27;;;;;;;37.15;26.67;;;15.10;99.90;;;;;;5043831;28;20159;-67
2023/09/27 07:22:54;;;;;;;39.45;26.88;;;15.20;99.90;;;;;;5048784;28;20041;-67
2023/09/27 07:25:20;;;;;;;38.08;25.30;;;15.30;99.90;;;;;;5049055;28;20037;-67
2023/09/27 07:27:48;;;;;;;35.85;25.92;;;15.40;99.90;;;;;;5051056;28;20346;-67
2023/09/27 07:30:18;;;;;;;34.92;23.90;;;15.60;99.90;;;;;;5031550;28;20120;-67
2023/09/27 07:32:45;;;;;;;35.88;24.63;;;15.70;99.90;;;;;;5046803;28;20129;-67
2023/09/27 07:35:12;;;;;;;36.85;25.08;;;15.70;99.90;;;;;;5031073;28;20140;-67
2023/09/27 07:37:37;;;;;;;31.77;23.48;;;15.70;99.90;;;;;;5048511;28;20385;-67
2023/09/27 07:40:10;;;;;;;33.50;24.35;;;15.70;99.90;;;;;;5049697;28;20036;-67
2023/09/27 07:42:41;;;;;;;32.00;23.45;;;15.70;99.90;;;;;;5047215;28;20085;-67
2023/09/27 07:45:13;;;;;;;32.63;23.35;;;15.70;99.90;;;;;;5030610;28;20087;-67
2023/09/27 07:47:38;;;;;;;31.48;22.67;;;15.80;99.90;;;;;;5042659;28;20662;-67
2023/09/27 07:50:04;;;;;;;32.92;23.70;;;15.80;99.90;;;;;;5038087;28;20037;-67
2023/09/27 07:52:30;;;;;;;33.42;23.05;;;15.80;99.90;;;;;;5039342;28;20198;-67
2023/09/27 07:54:58;;;;;;;31.88;22.80;;;15.80;99.90;;;;;;5041720;28;20056;-67
2023/09/27 07:57:24;;;;;;;36.15;23.88;;;15.80;99.90;;;;;;5035227;28;20065;-67
2023/09/27 07:59:51;;;;;;;32.75;24.35;;;15.80;99.90;;;;;;5037421;28;20114;-67
2023/09/27 08:02:16;;;;;;;35.00;23.17;;;15.80;99.90;;;;;;5036109;28;20061;-66
2023/09/27 08:04:42;;;;;;;35.03;24.10;;;15.80;99.90;;;;;;5042228;28;20048;-67
2023/09/27 08:07:08;;;;;;;33.58;23.02;;;15.80;99.90;;;;;;5035581;28;20128;-67
2023/09/27 08:09:38;;;;;;;33.78;23.10;;;15.80;99.90;;;;;;5042796;28;20098;-67
2023/09/27 08:12:07;;;;;;;35.03;24.15;;;15.80;99.90;;;;;;5038559;28;20033;-67
2023/09/27 08:14:36;;;;;;;34.10;24.02;;;15.80;99.90;;;;;;5034518;28;20048;-67
2023/09/27 08:17:02;;;;;;;35.40;24.88;;;15.80;99.90;;;;;;5045765;28;20044;-67
2023/09/27 08:19:28;;;;;;;36.58;25.35;;;15.80;99.90;;;;;;5037161;28;20123;-67
2023/09/27 08:21:55;;;;;;;35.45;24.70;;;15.90;99.90;;;;;;5045183;28;20259;-66
2023/09/27 08:24:21;;;;;;;38.97;24.88;;;15.90;99.90;;;;;;5046471;28;20150;-67
2023/09/27 08:26:47;;;;;;;36.15;23.90;;;15.90;99.90;;;;;;5047670;28;20421;-67
2023/09/27 08:29:13;;;;;;;40.53;25.70;;;16.00;99.90;;;;;;5048840;28;20051;-67
2023/09/27 08:31:40;;;;;;;33.17;24.45;;;16.10;99.90;;;;;;5025515;28;20076;-67
2023/09/27 08:34:05;;;;;;;36.40;25.38;;;16.10;99.90;;;;;;5027420;28;20032;-67
2023/09/27 08:36:31;;;;;;;39.97;26.85;;;16.30;99.90;;;;;;5040840;28;20091;-66
2023/09/27 08:38:57;;;;;;;41.78;25.42;;;16.40;99.90;;;;;;5045347;28;20041;-68
2023/09/27 08:41:23;;;;;;;35.20;25.20;;;16.50;99.90;;;;;;5043380;28;20453;-67
2023/09/27 08:43:50;;;;;;;34.35;25.65;;;16.80;99.90;;;;;;5040721;28;20041;-67
2023/09/27 08:46:19;;;;;;;35.45;23.95;;;17.00;99.90;;;;;;5038452;28;20447;-67
2023/09/27 08:48:45;;;;;;;36.90;25.23;;;17.20;99.90;;;;;;5026266;28;20055;-68
2023/09/27 08:51:11;;;;;;;33.55;23.63;;;17.30;99.90;;;;;;5038952;28;20033;-67
2023/09/27 08:53:38;;;;;;;36.03;25.00;;;17.40;99.90;;;;;;5045602;28;20029;-67
2023/09/27 08:56:06;;;;;;;35.03;24.45;;;17.60;99.90;;;;;;5042478;28;20037;-67
2023/09/27 08:58:34;;;;;;;32.58;22.75;;;17.80;99.90;;;;;;5041112;28;20048;-67
2023/09/27 09:01:00;;;;;;;34.47;23.13;;;18.00;99.90;;;;;;5042096;28;20135;-67
2023/09/27 09:03:26;;;;;;;33.53;23.20;;;18.20;99.90;;;;;;5042191;28;20052;-67
2023/09/27 09:05:52;;;;;;;32.63;22.25;;;18.20;99.90;;;;;;5036627;28;20033;-67
2023/09/27 09:08:19;;;;;;;29.63;21.67;;;18.40;99.90;;;;;;5039910;28;20124;-67
2023/09/27 09:10:45;;;;;;;26.52;19.52;;;18.40;99.90;;;;;;5042047;28;20094;-67
2023/09/27 09:13:11;;;;;;;28.23;19.20;;;18.50;99.90;;;;;;5044928;28;20435;-67
2023/09/27 09:15:40;;;;;;;28.20;20.38;;;18.50;99.90;;;;;;5036555;28;20099;-67
2023/09/27 09:18:11;;;;;;;23.80;17.30;;;18.50;99.90;;;;;;5028428;28;20033;-67
2023/09/27 09:20:51;;;;;;;24.58;18.02;;;18.60;99.90;;;;;;5024599;28;20040;-67
2023/09/27 09:23:31;;;;;;;24.15;16.77;;;18.80;99.90;;;;;;5034796;28;20057;-67
2023/09/27 09:25:57;;;;;;;22.40;16.00;;;19.10;99.90;;;;;;5031964;28;20107;-68
2023/09/27 09:28:24;;;;;;;24.38;16.63;;;19.30;99.90;;;;;;5041241;28;20041;-67
2023/09/27 09:30:50;;;;;;;24.00;16.67;;;19.40;99.90;;;;;;5038634;28;20166;-67
2023/09/27 09:33:17;;;;;;;24.23;16.13;;;19.50;99.90;;;;;;5031876;28;20088;-67
2023/09/27 09:35:43;;;;;;;23.05;15.40;;;19.40;99.90;;;;;;5033676;28;20527;-67
2023/09/27 09:38:09;;;;;;;21.63;14.32;;;19.40;99.90;;;;;;5039347;28;20033;-67
2023/09/27 09:40:52;;;;;;;21.15;14.20;;;19.30;99.90;;;;;;5045850;28;20641;-67
2023/09/27 09:43:39;;;;;;;21.50;13.80;;;19.30;99.90;;;;;;5034306;28;20049;-67
2023/09/27 09:46:06;;;;;;;20.42;14.35;;;19.30;99.90;;;;;;5037523;28;20326;-67
2023/09/27 09:48:33;;;;;;;22.80;15.20;;;19.30;99.90;;;;;;5045498;28;20098;-67
2023/09/27 09:51:05;;;;;;;21.20;15.05;;;19.30;99.90;;;;;;5030453;28;20117;-67
2023/09/27 09:53:35;;;;;;;23.23;16.63;;;19.40;99.90;;;;;;5033518;28;20045;-67
2023/09/27 09:56:02;;;;;;;22.88;15.18;;;19.40;99.90;;;;;;5042705;28;20040;-67
2023/09/27 09:58:42;;;;;;;19.80;14.32;;;19.60;99.90;;;;;;5039863;28;20095;-69
2023/09/27 10:01:12;;;;;;;22.35;14.93;;;19.60;99.90;;;;;;5020697;28;20791;-68
2023/09/27 10:03:40;;;;;;;21.75;14.63;;;19.60;99.90;;;;;;5026661;28;20522;-68
2023/09/27 10:06:08;;;;;;;19.08;13.95;;;19.70;99.90;;;;;;5043858;28;20094;-68
2023/09/27 10:08:37;;;;;;;20.75;14.38;;;19.80;99.90;;;;;;5039750;28;20068;-67
2023/09/27 10:11:04;;;;;;;25.33;15.30;;;19.80;99.90;;;;;;5038710;28;20037;-68
2023/09/27 10:13:34;;;;;;;23.50;14.63;;;19.60;99.90;;;;;;5044784;28;20047;-68
2023/09/27 10:16:00;;;;;;;21.20;14.95;;;19.80;99.90;;;;;;5031775;28;20075;-69
2023/09/27 10:18:30;;;;;;;23.63;17.35;;;19.90;99.90;;;;;;5039205;28;20441;-69
2023/09/27 10:21:06;;;;;;;;;;;20.00;99.90;;;;;;5045402;28;20033;-68
2023/09/27 10:23:45;;;;;;;23.95;16.75;;;20.00;99.90;;;;;;5040870;28;19925;-67
2023/09/27 10:26:26;;;;;;;22.17;15.60;;;20.20;99.90;;;;;;5045700;28;20055;-67
2023/09/27 10:29:01;;;;;;;25.67;19.27;;;20.30;99.90;;;;;;5031347;28;20048;-67
2023/09/27 10:31:27;;;;;;;26.38;18.90;;;20.30;99.90;;;;;;5030992;28;20037;-67
2023/09/27 10:33:53;;;;;;;33.17;20.92;;;20.20;99.90;;;;;;5049055;28;20037;-68
2023/09/27 10:36:26;;;;;;;27.40;19.10;;;20.20;99.90;;;;;;5043643;28;20101;-73
2023/09/27 10:38:52;;;;;;;27.08;18.50;;;20.30;99.90;;;;;;5044993;28;20068;-67
2023/09/27 10:41:33;;;;;;;24.55;18.08;;;20.30;99.90;;;;;;5045330;28;20148;-68
2023/09/27 10:44:00;;;;;;;28.80;20.40;;;20.50;99.90;;;;;;5060408;28;20107;-67
2023/09/27 10:46:25;;;;;;;25.17;18.30;;;20.60;99.90;;;;;;5044353;28;20397;-68
2023/09/27 10:48:55;;;;;;;25.25;17.20;;;20.70;99.90;;;;;;5046833;28;20063;-68
2023/09/27 10:51:22;;;;;;;24.10;17.77;;;20.70;99.90;;;;;;5044484;28;20112;-68
2023/09/27 10:53:49;;;;;;;24.40;17.65;;;20.70;99.90;;;;;;5031622;28;20056;-69
2023/09/27 10:56:15;;;;;;;24.70;17.27;;;20.80;99.90;;;;;;5048434;28;20432;-68
2023/09/27 10:58:45;;;;;;;27.33;18.23;;;20.90;99.90;;;;;;5042763;28;20053;-68
2023/09/27 11:01:11;;;;;;;25.15;16.67;;;20.90;99.90;;;;;;5046343;28;20037;-69
2023/09/27 11:03:37;;;;;;;24.30;16.48;;;21.00;99.90;;;;;;5049633;28;20056;-68
2023/09/27 11:06:11;;;;;;;24.42;17.08;;;21.10;99.90;;;;;;5033764;28;20120;-68
2023/09/27 11:08:36;;;;;;;21.70;16.27;;;21.10;99.90;;;;;;5044132;28;20047;-68
2023/09/27 11:11:05;;;;;;;23.38;16.55;;;21.20;99.90;;;;;;5050202;28;20384;-69
2023/09/27 11:13:32;;;;;;;22.88;15.05;;;21.20;99.90;;;;;;5030798;28;20144;-70
2023/09/27 11:16:09;;;;;;;20.58;13.70;;;21.20;99.90;;;;;;5050148;28;20045;-68
2023/09/27 11:18:35;;;;;;;18.52;13.02;;;21.30;99.90;;;;;;5044134;28;20575;-68
2023/09/27 11:21:08;;;;;;;20.83;15.02;;;21.50;99.90;;;;;;5044133;28;20044;-67
2023/09/27 11:23:57;;;;;;;19.30;13.75;;;21.50;99.90;;;;;;5040750;28;20041;-67
2023/09/27 11:26:24;;;;;;;19.25;13.35;;;21.50;99.90;;;;;;5032919;28;20124;-72
2023/09/27 11:28:57;;;;;;;21.30;13.85;;;21.60;99.90;;;;;;5049850;28;20132;-71
2023/09/27 11:31:23;;;;;;;20.10;13.25;;;21.60;99.90;;;;;;5046766;28;20045;-69
2023/09/27 11:33:49;;;;;;;19.10;14.13;;;21.60;99.90;;;;;;5046933;28;20037;-68
2023/09/27 11:36:15;;;;;;;19.70;13.40;;;21.60;99.90;;;;;;5045357;28;20040;-66
2023/09/27 11:38:50;;;;;;;18.70;13.68;;;21.60;99.90;;;;;;5049530;28;20405;-68
2023/09/27 11:41:18;;;;;;;19.65;12.95;;;21.60;99.90;;;;;;5049962;28;20041;-68
2023/09/27 11:43:45;;;;;;;18.50;14.18;;;21.70;99.90;;;;;;5047893;28;20052;-67
2023/09/27 11:46:11;;;;;;;19.80;13.98;;;21.70;99.90;;;;;;5041428;28;20458;-67
2023/09/27 11:48:37;;;;;;;17.63;13.63;;;21.90;99.90;;;;;;5049331;28;20037;-67
2023/09/27 11:51:02;;;;;;;19.25;12.63;;;22.00;99.90;;;;;;5046613;28;20032;-68
2023/09/27 11:53:28;;;;;;;17.42;12.45;;;21.90;99.90;;;;;;5031347;28;20044;-69
2023/09/27 11:55:55;;;;;;;18.30;11.85;;;21.80;99.90;;;;;;5050435;28;20361;-69
2023/09/27 11:58:21;;;;;;;18.08;13.00;;;21.80;99.90;;;;;;5050823;28;20230;-68
2023/09/27 12:00:47;;;;;;;18.33;13.07;;;21.70;99.90;;;;;;5051873;28;20132;-68
2023/09/27 12:03:13;;;;;;;15.50;12.23;;;21.70;99.90;;;;;;5042920;28;20579;-68
2023/09/27 12:05:38;;;;;;;19.27;13.30;;;21.60;99.90;;;;;;5044550;28;20189;-67
2023/09/27 12:08:05;;;;;;;17.33;12.90;;;21.60;99.90;;;;;;5046517;28;20047;-67
2023/09/27 12:10:31;;;;;;;16.92;12.48;;;21.50;99.90;;;;;;5047371;28;20037;-67
2023/09/27 12:12:57;;;;;;;19.88;13.93;;;21.40;99.90;;;;;;5046305;28;20101;-68
2023/09/27 12:15:22;;;;;;;18.48;14.00;;;21.40;99.90;;;;;;5043141;28;20045;-67
2023/09/27 12:17:48;;;;;;;18.25;12.60;;;21.40;99.90;;;;;;5042456;28;20155;-67
2023/09/27 12:20:14;;;;;;;19.23;13.10;;;21.40;99.90;;;;;;5046818;28;20051;-67
2023/09/27 12:22:40;;;;;;;21.05;13.60;;;21.50;99.90;;;;;;5042911;28;20566;-67
2023/09/27 12:25:08;;;;;;;19.38;13.65;;;21.70;99.90;;;;;;5050577;28;20189;-68
2023/09/27 12:27:34;;;;;;;17.58;13.50;;;21.70;99.90;;;;;;5049483;28;20044;-67